Marathon, WI (54448)

1:55 AM CDT on August 28, 2015 (GMT -0500)
East Rib Mountain | | Change Station
CLOSE
Current Station
Personal Weather Station
Location: Wausau, WI
Elevation: 1211 ft
Nearby Weather Stations

Elev 1211 ft 44.93 °N, 89.66 °W | Updated 5 minutes ago

Clear
Clear
62.8 °F
Feels Like 62.8 °F
N
6.9
Wind Variable Wind from SSW
Gusts 10.7 mph

Today
High -- | Low -- °F
--% Chance of Precip.
Yesterday
High -- | Low -- °F
Precip. -- in
6:16 AM 7:43 PM
Waxing Gibbous, 97% visible
Pressure 30.06 in
Visibility 10.0 miles
Clouds Clear
Dew Point 59 °F
Humidity 88%
Rainfall 0.00 in
Snow Depth Not available.
UV 0 out of 12
Pollen 9.80 out of 12
Air Quality Not available.
Flu Activity Not available.
METAR KAUW 280554Z AUTO 19005KT 10SM CLR 17/14 A3006 RMK AO2 SLP180 T01670144 10211 20150 402390083 56002
Pressure 30.06 in
Visibility 10.0 miles
Clouds Clear
Dew Point 59 °F
Humidity 88%
Rainfall 0.00 in
Snow Depth Not available.
UV 0 out of 12
Pollen 9.80 out of 12
Air Quality Not available.
Flu Activity Not available.
METAR KAUW 280554Z AUTO 19005KT 10SM CLR 17/14 A3006 RMK AO2 SLP180 T01670144 10211 20150 402390083 56002

10-Day Weather Forecast

×

Almanac

Astronomy

Aug. 28, 2015 Rise Set
Actual Time
Civil Twilight
Nautical Twilight
Astronomical Twilight
Moon
Length of Visible Light
Length of Day
Tomorrow will be .
, % of the Moon is Illuminated

Today's Extremes

State Highs State Lows

Community

WunderPhotos

Upload Photos

1,850,341 photos uploaded!

WunderBlogs® & News

Nearby

Air Quality

  Air Quality AQ Index Pollutant
Not available.

Snow Depth

Station Depth Elevation

Earthquake Activity

City Distance Mag. Time & Date
Minimum magnitude displayed is 2.5.

Coastal Water Temperatures

Place Temperature

Stations

Nearby Weather Stations

Station Location Temp. Windchill Dew Point Humidity Wind Precip. Elev Updated Type